EmailTwitter


Surface observations / United Kingdom / EGLC

Regions: Quebec | Canada | USA | Europe | France | UK | Elsewhere
Station
Display
Info & Location for EGLC | Help decoding METAR

Weather Conditions observed on 2019/03/22 at 11:50 UTC at LONDON CITY AIRP, UK (EGLC)

Sky conditions: overcast.

Temperature: 10.0 Celsius.

Dewpoint: 7.0 Celsius.

Relative Humidity: 82%

Windchill Factor: 8.

Winds: Southwest at 17 km/h or 9 knots.

Mean Sea level Pressure: 102.80 kilopascals.

Horizontal visibility: 6.21 statute miles or 9.94 kilometers.

Height of the Ceiling: 396 metres ( 1300 feet ).

Coded METAR:

EGLC 221150Z AUTO 24009KT 200V300 9999 OVC013 10/07 Q1028=